sensor_id;sensor_type;location;lat;lon;timestamp;temperature;humidity
3067;DHT22;1544;48.834;9.194;2023-09-07T00:00:40;18.10;44.90
3067;DHT22;1544;48.834;9.194;2023-09-07T00:03:16;18.00;45.00
3067;DHT22;1544;48.834;9.194;2023-09-07T00:05:52;18.00;45.20
3067;DHT22;1544;48.834;9.194;2023-09-07T00:08:28;17.90;45.30
3067;DHT22;1544;48.834;9.194;2023-09-07T00:11:08;17.90;45.50
3067;DHT22;1544;48.834;9.194;2023-09-07T00:13:47;17.80;45.50
3067;DHT22;1544;48.834;9.194;2023-09-07T00:16:23;17.80;45.80
3067;DHT22;1544;48.834;9.194;2023-09-07T00:18:59;17.80;45.90
3067;DHT22;1544;48.834;9.194;2023-09-07T00:21:35;17.70;45.90
3067;DHT22;1544;48.834;9.194;2023-09-07T00:24:12;17.70;46.10
3067;DHT22;1544;48.834;9.194;2023-09-07T00:26:48;17.70;46.20
3067;DHT22;1544;48.834;9.194;2023-09-07T00:29:24;17.60;46.30
3067;DHT22;1544;48.834;9.194;2023-09-07T00:32:01;17.60;46.50
3067;DHT22;1544;48.834;9.194;2023-09-07T00:34:37;17.50;46.80
3067;DHT22;1544;48.834;9.194;2023-09-07T00:37:13;17.50;47.20
3067;DHT22;1544;48.834;9.194;2023-09-07T00:39:49;17.50;47.40
3067;DHT22;1544;48.834;9.194;2023-09-07T00:42:25;17.50;47.60
3067;DHT22;1544;48.834;9.194;2023-09-07T00:45:01;17.40;47.70
3067;DHT22;1544;48.834;9.194;2023-09-07T00:47:37;17.40;47.80
3067;DHT22;1544;48.834;9.194;2023-09-07T00:50:14;17.30;47.80
3067;DHT22;1544;48.834;9.194;2023-09-07T00:52:52;17.30;47.90
3067;DHT22;1544;48.834;9.194;2023-09-07T00:55:28;17.30;48.00
3067;DHT22;1544;48.834;9.194;2023-09-07T00:58:08;17.30;48.20
3067;DHT22;1544;48.834;9.194;2023-09-07T01:00:47;17.20;48.20
3067;DHT22;1544;48.834;9.194;2023-09-07T01:03:24;17.20;48.40
3067;DHT22;1544;48.834;9.194;2023-09-07T01:06:17;17.10;48.40
3067;DHT22;1544;48.834;9.194;2023-09-07T01:09:01;17.10;48.40
3067;DHT22;1544;48.834;9.194;2023-09-07T01:11:40;17.10;48.60
3067;DHT22;1544;48.834;9.194;2023-09-07T01:14:16;17.00;48.70
3067;DHT22;1544;48.834;9.194;2023-09-07T01:16:52;17.00;48.70
3067;DHT22;1544;48.834;9.194;2023-09-07T01:19:29;16.90;48.80
3067;DHT22;1544;48.834;9.194;2023-09-07T01:22:09;16.90;48.90
3067;DHT22;1544;48.834;9.194;2023-09-07T01:24:46;16.90;49.00
3067;DHT22;1544;48.834;9.194;2023-09-07T01:27:23;16.90;49.10
3067;DHT22;1544;48.834;9.194;2023-09-07T01:29:59;16.80;49.20
3067;DHT22;1544;48.834;9.194;2023-09-07T01:32:35;16.80;49.30
3067;DHT22;1544;48.834;9.194;2023-09-07T01:35:14;16.80;49.50
3067;DHT22;1544;48.834;9.194;2023-09-07T01:37:52;16.70;49.60
3067;DHT22;1544;48.834;9.194;2023-09-07T01:40:29;16.70;49.90
3067;DHT22;1544;48.834;9.194;2023-09-07T01:43:05;16.70;50.00
3067;DHT22;1544;48.834;9.194;2023-09-07T01:45:41;16.60;50.30
3067;DHT22;1544;48.834;9.194;2023-09-07T01:48:17;17.60;51.30
3067;DHT22;1544;48.834;9.194;2023-09-07T01:50:53;16.60;50.70
3067;DHT22;1544;48.834;9.194;2023-09-07T01:53:30;16.60;50.80
3067;DHT22;1544;48.834;9.194;2023-09-07T01:56:06;16.50;50.90
3067;DHT22;1544;48.834;9.194;2023-09-07T01:58:42;16.50;51.00
3067;DHT22;1544;48.834;9.194;2023-09-07T02:01:27;16.50;51.30
3067;DHT22;1544;48.834;9.194;2023-09-07T02:04:09;16.40;51.90
3067;DHT22;1544;48.834;9.194;2023-09-07T02:06:45;16.40;51.90
3067;DHT22;1544;48.834;9.194;2023-09-07T02:09:21;16.40;52.30
3067;DHT22;1544;48.834;9.194;2023-09-07T02:11:57;16.40;52.60
3067;DHT22;1544;48.834;9.194;2023-09-07T02:14:33;16.30;52.80
3067;DHT22;1544;48.834;9.194;2023-09-07T02:17:09;16.30;53.10
3067;DHT22;1544;48.834;9.194;2023-09-07T02:19:46;16.30;53.40
3067;DHT22;1544;48.834;9.194;2023-09-07T02:22:22;16.30;53.50
3067;DHT22;1544;48.834;9.194;2023-09-07T02:24:58;16.30;53.60
3067;DHT22;1544;48.834;9.194;2023-09-07T02:27:35;16.20;53.70
3067;DHT22;1544;48.834;9.194;2023-09-07T02:30:11;16.20;54.00
3067;DHT22;1544;48.834;9.194;2023-09-07T02:32:47;16.20;54.20
3067;DHT22;1544;48.834;9.194;2023-09-07T02:35:23;16.10;54.40
3067;DHT22;1544;48.834;9.194;2023-09-07T02:38:00;16.10;54.70
3067;DHT22;1544;48.834;9.194;2023-09-07T02:40:43;16.10;55.00
3067;DHT22;1544;48.834;9.194;2023-09-07T02:43:19;16.00;55.00
3067;DHT22;1544;48.834;9.194;2023-09-07T02:45:55;16.00;55.20
3067;DHT22;1544;48.834;9.194;2023-09-07T02:48:31;16.00;55.30
3067;DHT22;1544;48.834;9.194;2023-09-07T02:51:08;16.00;55.50
3067;DHT22;1544;48.834;9.194;2023-09-07T02:53:44;15.90;55.70
3067;DHT22;1544;48.834;9.194;2023-09-07T02:56:20;15.90;55.90
3067;DHT22;1544;48.834;9.194;2023-09-07T02:58:56;15.90;56.80
3067;DHT22;1544;48.834;9.194;2023-09-07T03:01:33;15.90;57.00
3067;DHT22;1544;48.834;9.194;2023-09-07T03:04:10;15.80;57.30
3067;DHT22;1544;48.834;9.194;2023-09-07T03:06:46;15.80;57.70
3067;DHT22;1544;48.834;9.194;2023-09-07T03:09:22;15.80;58.00
3067;DHT22;1544;48.834;9.194;2023-09-07T03:11:58;16.50;58.80
3067;DHT22;1544;48.834;9.194;2023-09-07T03:14:35;15.70;58.30
3067;DHT22;1544;48.834;9.194;2023-09-07T03:17:11;15.70;58.30
3067;DHT22;1544;48.834;9.194;2023-09-07T03:19:47;15.70;58.50
3067;DHT22;1544;48.834;9.194;2023-09-07T03:22:24;15.60;58.50
3067;DHT22;1544;48.834;9.194;2023-09-07T03:25:00;15.60;58.70
3067;DHT22;1544;48.834;9.194;2023-09-07T03:27:37;15.60;59.10
3067;DHT22;1544;48.834;9.194;2023-09-07T03:30:16;15.60;59.50
3067;DHT22;1544;48.834;9.194;2023-09-07T03:32:52;15.60;59.80
3067;DHT22;1544;48.834;9.194;2023-09-07T03:35:28;15.50;60.00
3067;DHT22;1544;48.834;9.194;2023-09-07T03:38:04;15.50;60.10
3067;DHT22;1544;48.834;9.194;2023-09-07T03:40:40;15.50;60.10
3067;DHT22;1544;48.834;9.194;2023-09-07T03:43:17;15.50;60.20
3067;DHT22;1544;48.834;9.194;2023-09-07T03:45:54;15.40;60.30
3067;DHT22;1544;48.834;9.194;2023-09-07T03:48:30;15.30;60.40
3067;DHT22;1544;48.834;9.194;2023-09-07T03:51:07;15.40;60.70
3067;DHT22;1544;48.834;9.194;2023-09-07T03:53:43;15.30;60.80
3067;DHT22;1544;48.834;9.194;2023-09-07T03:56:19;15.30;61.00
3067;DHT22;1544;48.834;9.194;2023-09-07T03:58:55;15.30;61.50
3067;DHT22;1544;48.834;9.194;2023-09-07T04:01:31;15.30;61.30
3067;DHT22;1544;48.834;9.194;2023-09-07T04:04:07;15.20;61.70
3067;DHT22;1544;48.834;9.194;2023-09-07T04:06:46;15.20;62.30
3067;DHT22;1544;48.834;9.194;2023-09-07T04:09:24;15.20;62.60
3067;DHT22;1544;48.834;9.194;2023-09-07T04:12:00;15.20;62.90
3067;DHT22;1544;48.834;9.194;2023-09-07T04:14:36;15.10;63.10
3067;DHT22;1544;48.834;9.194;2023-09-07T04:17:13;15.10;63.40
3067;DHT22;1544;48.834;9.194;2023-09-07T04:19:49;15.10;63.80
3067;DHT22;1544;48.834;9.194;2023-09-07T04:22:25;15.10;64.00
3067;DHT22;1544;48.834;9.194;2023-09-07T04:25:01;15.10;64.10
3067;DHT22;1544;48.834;9.194;2023-09-07T04:27:38;15.10;64.50
3067;DHT22;1544;48.834;9.194;2023-09-07T04:30:15;15.00;64.70
3067;DHT22;1544;48.834;9.194;2023-09-07T04:32:51;15.10;65.10
3067;DHT22;1544;48.834;9.194;2023-09-07T04:35:32;15.00;65.00
3067;DHT22;1544;48.834;9.194;2023-09-07T04:38:09;15.00;65.00
3067;DHT22;1544;48.834;9.194;2023-09-07T04:40:45;15.00;65.20
3067;DHT22;1544;48.834;9.194;2023-09-07T04:43:21;15.00;65.50
3067;DHT22;1544;48.834;9.194;2023-09-07T04:45:57;14.90;65.80
3067;DHT22;1544;48.834;9.194;2023-09-07T04:48:33;14.90;66.50
3067;DHT22;1544;48.834;9.194;2023-09-07T04:51:10;14.90;66.90
3067;DHT22;1544;48.834;9.194;2023-09-07T04:53:48;14.90;67.00
3067;DHT22;1544;48.834;9.194;2023-09-07T04:56:25;14.90;67.20
3067;DHT22;1544;48.834;9.194;2023-09-07T04:59:01;14.90;67.70
3067;DHT22;1544;48.834;9.194;2023-09-07T05:01:38;14.90;67.90
3067;DHT22;1544;48.834;9.194;2023-09-07T05:04:14;14.90;67.90
3067;DHT22;1544;48.834;9.194;2023-09-07T05:06:50;14.90;67.80
3067;DHT22;1544;48.834;9.194;2023-09-07T05:09:26;14.90;67.60
3067;DHT22;1544;48.834;9.194;2023-09-07T05:12:05;14.90;67.50
3067;DHT22;1544;48.834;9.194;2023-09-07T05:14:41;14.90;67.60
3067;DHT22;1544;48.834;9.194;2023-09-07T05:17:17;14.90;67.90
3067;DHT22;1544;48.834;9.194;2023-09-07T05:19:53;14.90;67.90
3067;DHT22;1544;48.834;9.194;2023-09-07T05:22:29;15.00;68.30
3067;DHT22;1544;48.834;9.194;2023-09-07T05:25:05;15.00;68.40
3067;DHT22;1544;48.834;9.194;2023-09-07T05:27:41;15.00;68.30
3067;DHT22;1544;48.834;9.194;2023-09-07T05:30:18;15.50;68.80
3067;DHT22;1544;48.834;9.194;2023-09-07T05:32:55;15.00;68.40
3067;DHT22;1544;48.834;9.194;2023-09-07T05:35:31;15.00;68.40
3067;DHT22;1544;48.834;9.194;2023-09-07T05:38:09;15.00;68.40
3067;DHT22;1544;48.834;9.194;2023-09-07T05:40:46;15.10;68.60
3067;DHT22;1544;48.834;9.194;2023-09-07T05:43:26;15.10;68.90
3067;DHT22;1544;48.834;9.194;2023-09-07T05:46:02;15.10;68.20
3067;DHT22;1544;48.834;9.194;2023-09-07T05:48:38;15.20;67.90
3067;DHT22;1544;48.834;9.194;2023-09-07T05:51:16;15.20;68.00
3067;DHT22;1544;48.834;9.194;2023-09-07T05:53:53;15.20;68.10
3067;DHT22;1544;48.834;9.194;2023-09-07T05:56:31;15.20;68.00
3067;DHT22;1544;48.834;9.194;2023-09-07T05:59:09;15.30;67.80
3067;DHT22;1544;48.834;9.194;2023-09-07T06:01:45;15.30;67.70
3067;DHT22;1544;48.834;9.194;2023-09-07T06:04:21;15.30;67.70
3067;DHT22;1544;48.834;9.194;2023-09-07T06:06:57;15.40;67.90
3067;DHT22;1544;48.834;9.194;2023-09-07T06:09:33;15.40;67.80
3067;DHT22;1544;48.834;9.194;2023-09-07T06:12:10;15.50;67.80
3067;DHT22;1544;48.834;9.194;2023-09-07T06:14:46;15.50;67.80
3067;DHT22;1544;48.834;9.194;2023-09-07T06:17:22;15.50;67.80
3067;DHT22;1544;48.834;9.194;2023-09-07T06:19:59;15.60;67.70
3067;DHT22;1544;48.834;9.194;2023-09-07T06:22:35;15.70;67.70
3067;DHT22;1544;48.834;9.194;2023-09-07T06:25:11;15.70;67.70
3067;DHT22;1544;48.834;9.194;2023-09-07T06:27:50;15.70;67.70
3067;DHT22;1544;48.834;9.194;2023-09-07T06:30:26;15.80;67.50
3067;DHT22;1544;48.834;9.194;2023-09-07T06:33:02;15.90;67.60
3067;DHT22;1544;48.834;9.194;2023-09-07T06:35:39;16.00;67.40
3067;DHT22;1544;48.834;9.194;2023-09-07T06:38:15;16.00;67.20
3067;DHT22;1544;48.834;9.194;2023-09-07T06:40:51;16.10;66.90
3067;DHT22;1544;48.834;9.194;2023-09-07T06:43:29;16.10;66.70
3067;DHT22;1544;48.834;9.194;2023-09-07T06:46:09;16.20;66.60
3067;DHT22;1544;48.834;9.194;2023-09-07T06:48:45;16.30;66.70
3067;DHT22;1544;48.834;9.194;2023-09-07T06:51:21;16.40;66.60
3067;DHT22;1544;48.834;9.194;2023-09-07T06:53:57;16.50;66.30
3067;DHT22;1544;48.834;9.194;2023-09-07T06:56:35;16.60;66.10
3067;DHT22;1544;48.834;9.194;2023-09-07T06:59:11;16.60;65.50
3067;DHT22;1544;48.834;9.194;2023-09-07T07:01:47;16.70;65.10
3067;DHT22;1544;48.834;9.194;2023-09-07T07:04:23;16.80;64.60
3067;DHT22;1544;48.834;9.194;2023-09-07T07:06:59;16.90;63.80
3067;DHT22;1544;48.834;9.194;2023-09-07T07:09:37;17.00;63.20
3067;DHT22;1544;48.834;9.194;2023-09-07T07:12:13;17.00;62.60
3067;DHT22;1544;48.834;9.194;2023-09-07T07:14:49;17.10;62.00
3067;DHT22;1544;48.834;9.194;2023-09-07T07:17:25;17.20;61.30
3067;DHT22;1544;48.834;9.194;2023-09-07T07:20:02;17.30;60.80
3067;DHT22;1544;48.834;9.194;2023-09-07T07:22:39;17.40;60.20
3067;DHT22;1544;48.834;9.194;2023-09-07T07:25:15;17.50;59.60
3067;DHT22;1544;48.834;9.194;2023-09-07T07:27:51;17.50;59.00
3067;DHT22;1544;48.834;9.194;2023-09-07T07:30:28;17.60;58.60
3067;DHT22;1544;48.834;9.194;2023-09-07T07:33:06;17.70;58.20
3067;DHT22;1544;48.834;9.194;2023-09-07T07:35:43;17.80;57.80
3067;DHT22;1544;48.834;9.194;2023-09-07T07:38:19;17.90;57.40
3067;DHT22;1544;48.834;9.194;2023-09-07T07:40:56;18.00;56.90
3067;DHT22;1544;48.834;9.194;2023-09-07T07:43:32;18.10;56.40
3067;DHT22;1544;48.834;9.194;2023-09-07T07:46:10;18.20;55.90
3067;DHT22;1544;48.834;9.194;2023-09-07T07:48:46;18.30;55.20
3067;DHT22;1544;48.834;9.194;2023-09-07T07:51:23;18.40;54.80
3067;DHT22;1544;48.834;9.194;2023-09-07T07:54:00;18.50;54.30
3067;DHT22;1544;48.834;9.194;2023-09-07T07:56:36;18.60;53.80
3067;DHT22;1544;48.834;9.194;2023-09-07T07:59:14;18.70;53.50
3067;DHT22;1544;48.834;9.194;2023-09-07T08:01:50;18.70;53.00
3067;DHT22;1544;48.834;9.194;2023-09-07T08:04:26;18.90;52.50
3067;DHT22;1544;48.834;9.194;2023-09-07T08:07:03;19.00;52.10
3067;DHT22;1544;48.834;9.194;2023-09-07T08:09:41;19.10;51.70
3067;DHT22;1544;48.834;9.194;2023-09-07T08:12:17;19.20;51.00
3067;DHT22;1544;48.834;9.194;2023-09-07T08:14:53;19.30;50.40
3067;DHT22;1544;48.834;9.194;2023-09-07T08:17:29;19.40;50.10
3067;DHT22;1544;48.834;9.194;2023-09-07T08:20:06;19.50;49.70
3067;DHT22;1544;48.834;9.194;2023-09-07T08:22:46;19.60;49.40
3067;DHT22;1544;48.834;9.194;2023-09-07T08:25:22;19.70;49.00
3067;DHT22;1544;48.834;9.194;2023-09-07T08:27:59;19.80;48.60
3067;DHT22;1544;48.834;9.194;2023-09-07T08:30:35;19.90;48.20
3067;DHT22;1544;48.834;9.194;2023-09-07T08:33:12;20.00;47.80
3067;DHT22;1544;48.834;9.194;2023-09-07T08:35:57;20.10;47.50
3067;DHT22;1544;48.834;9.194;2023-09-07T08:38:35;20.20;46.30
3067;DHT22;1544;48.834;9.194;2023-09-07T08:41:11;20.30;46.10
3067;DHT22;1544;48.834;9.194;2023-09-07T08:43:49;20.40;46.10
3067;DHT22;1544;48.834;9.194;2023-09-07T08:46:28;20.50;45.90
3067;DHT22;1544;48.834;9.194;2023-09-07T08:49:06;20.60;45.70
3067;DHT22;1544;48.834;9.194;2023-09-07T08:51:42;20.60;45.10
3067;DHT22;1544;48.834;9.194;2023-09-07T08:54:19;20.70;45.10
3067;DHT22;1544;48.834;9.194;2023-09-07T08:56:57;20.80;45.00
3067;DHT22;1544;48.834;9.194;2023-09-07T08:59:33;20.90;44.90
3067;DHT22;1544;48.834;9.194;2023-09-07T09:02:10;21.00;44.50
3067;DHT22;1544;48.834;9.194;2023-09-07T09:04:47;21.10;44.30
3067;DHT22;1544;48.834;9.194;2023-09-07T09:07:23;21.20;44.20
3067;DHT22;1544;48.834;9.194;2023-09-07T09:10:06;21.30;44.20
3067;DHT22;1544;48.834;9.194;2023-09-07T09:12:46;21.40;44.20
3067;DHT22;1544;48.834;9.194;2023-09-07T09:15:25;21.50;43.70
3067;DHT22;1544;48.834;9.194;2023-09-07T09:18:12;21.60;43.50
3067;DHT22;1544;48.834;9.194;2023-09-07T09:20:49;21.70;43.50
3067;DHT22;1544;48.834;9.194;2023-09-07T09:23:33;21.80;43.40
3067;DHT22;1544;48.834;9.194;2023-09-07T09:26:11;21.80;43.20
3067;DHT22;1544;48.834;9.194;2023-09-07T09:28:47;21.90;43.50
3067;DHT22;1544;48.834;9.194;2023-09-07T09:31:24;22.00;43.00
3067;DHT22;1544;48.834;9.194;2023-09-07T09:34:00;22.10;42.90
3067;DHT22;1544;48.834;9.194;2023-09-07T09:36:41;22.20;42.50
3067;DHT22;1544;48.834;9.194;2023-09-07T09:39:24;22.30;42.50
3067;DHT22;1544;48.834;9.194;2023-09-07T09:42:01;22.40;42.30
3067;DHT22;1544;48.834;9.194;2023-09-07T09:44:38;22.50;42.10
3067;DHT22;1544;48.834;9.194;2023-09-07T09:47:15;22.70;41.80
3067;DHT22;1544;48.834;9.194;2023-09-07T09:49:52;22.80;41.50
3067;DHT22;1544;48.834;9.194;2023-09-07T09:52:28;22.90;41.30
3067;DHT22;1544;48.834;9.194;2023-09-07T09:55:06;23.10;41.40
3067;DHT22;1544;48.834;9.194;2023-09-07T09:57:44;23.20;41.30
3067;DHT22;1544;48.834;9.194;2023-09-07T10:00:20;23.30;41.00
3067;DHT22;1544;48.834;9.194;2023-09-07T10:03:11;23.40;40.80
3067;DHT22;1544;48.834;9.194;2023-09-07T10:05:50;23.50;40.80
3067;DHT22;1544;48.834;9.194;2023-09-07T10:08:29;23.70;40.70
3067;DHT22;1544;48.834;9.194;2023-09-07T10:11:10;23.80;40.70
3067;DHT22;1544;48.834;9.194;2023-09-07T10:13:57;23.90;40.40
3067;DHT22;1544;48.834;9.194;2023-09-07T10:16:47;24.00;40.20
3067;DHT22;1544;48.834;9.194;2023-09-07T10:19:25;24.10;40.00
3067;DHT22;1544;48.834;9.194;2023-09-07T10:22:02;24.30;39.90
3067;DHT22;1544;48.834;9.194;2023-09-07T10:24:39;24.40;39.90
3067;DHT22;1544;48.834;9.194;2023-09-07T10:27:17;24.50;39.90
3067;DHT22;1544;48.834;9.194;2023-09-07T10:29:55;24.70;39.90
3067;DHT22;1544;48.834;9.194;2023-09-07T10:32:38;24.80;39.80
3067;DHT22;1544;48.834;9.194;2023-09-07T10:35:19;24.90;39.50
3067;DHT22;1544;48.834;9.194;2023-09-07T10:37:58;25.10;39.40
3067;DHT22;1544;48.834;9.194;2023-09-07T10:40:34;25.20;39.00
3067;DHT22;1544;48.834;9.194;2023-09-07T10:43:10;25.30;38.90
3067;DHT22;1544;48.834;9.194;2023-09-07T10:45:46;25.40;38.70
3067;DHT22;1544;48.834;9.194;2023-09-07T10:48:29;25.50;38.70
3067;DHT22;1544;48.834;9.194;2023-09-07T10:51:06;25.60;38.50
3067;DHT22;1544;48.834;9.194;2023-09-07T10:53:42;25.70;38.00
3067;DHT22;1544;48.834;9.194;2023-09-07T10:56:18;25.80;37.80
3067;DHT22;1544;48.834;9.194;2023-09-07T10:58:54;25.90;37.90
3067;DHT22;1544;48.834;9.194;2023-09-07T11:01:31;26.00;37.90
3067;DHT22;1544;48.834;9.194;2023-09-07T11:04:07;26.10;37.80
3067;DHT22;1544;48.834;9.194;2023-09-07T11:06:44;26.20;37.50
3067;DHT22;1544;48.834;9.194;2023-09-07T11:09:20;26.20;37.00
3067;DHT22;1544;48.834;9.194;2023-09-07T11:11:56;26.30;37.20
3067;DHT22;1544;48.834;9.194;2023-09-07T11:14:32;26.40;37.20
3067;DHT22;1544;48.834;9.194;2023-09-07T11:17:08;26.60;37.00
3067;DHT22;1544;48.834;9.194;2023-09-07T11:19:52;26.70;37.00
3067;DHT22;1544;48.834;9.194;2023-09-07T11:22:28;26.80;36.90
3067;DHT22;1544;48.834;9.194;2023-09-07T11:25:05;27.00;36.90
3067;DHT22;1544;48.834;9.194;2023-09-07T11:27:42;27.10;36.70
3067;DHT22;1544;48.834;9.194;2023-09-07T11:30:17;27.20;36.40
3067;DHT22;1544;48.834;9.194;2023-09-07T11:33:06;27.40;36.10
3067;DHT22;1544;48.834;9.194;2023-09-07T11:35:43;27.60;35.90
3067;DHT22;1544;48.834;9.194;2023-09-07T11:38:19;27.70;36.00
3067;DHT22;1544;48.834;9.194;2023-09-07T11:40:55;27.90;36.00
3067;DHT22;1544;48.834;9.194;2023-09-07T11:43:31;28.00;35.70
3067;DHT22;1544;48.834;9.194;2023-09-07T11:46:09;28.10;35.40
3067;DHT22;1544;48.834;9.194;2023-09-07T11:48:47;28.30;35.10
3067;DHT22;1544;48.834;9.194;2023-09-07T11:51:23;28.40;35.10
3067;DHT22;1544;48.834;9.194;2023-09-07T11:54:01;28.60;34.70
3067;DHT22;1544;48.834;9.194;2023-09-07T11:56:37;28.70;34.80
3067;DHT22;1544;48.834;9.194;2023-09-07T11:59:18;28.90;34.80
3067;DHT22;1544;48.834;9.194;2023-09-07T12:01:54;29.10;34.70
3067;DHT22;1544;48.834;9.194;2023-09-07T12:04:30;29.30;34.10
3067;DHT22;1544;48.834;9.194;2023-09-07T12:07:06;29.50;34.20
3067;DHT22;1544;48.834;9.194;2023-09-07T12:09:44;29.70;34.00
3067;DHT22;1544;48.834;9.194;2023-09-07T12:12:19;29.90;33.60
3067;DHT22;1544;48.834;9.194;2023-09-07T12:14:55;30.10;33.50
3067;DHT22;1544;48.834;9.194;2023-09-07T12:17:32;30.30;33.40
3067;DHT22;1544;48.834;9.194;2023-09-07T12:20:09;30.60;33.70
3067;DHT22;1544;48.834;9.194;2023-09-07T12:22:46;30.90;32.70
3067;DHT22;1544;48.834;9.194;2023-09-07T12:25:22;31.00;32.50
3067;DHT22;1544;48.834;9.194;2023-09-07T12:27:58;31.30;32.40
3067;DHT22;1544;48.834;9.194;2023-09-07T12:30:35;31.60;32.50
3067;DHT22;1544;48.834;9.194;2023-09-07T12:33:11;31.80;32.30
3067;DHT22;1544;48.834;9.194;2023-09-07T12:35:47;32.00;32.20
3067;DHT22;1544;48.834;9.194;2023-09-07T12:38:23;32.30;31.70
3067;DHT22;1544;48.834;9.194;2023-09-07T12:41:03;32.50;31.70
3067;DHT22;1544;48.834;9.194;2023-09-07T12:43:39;32.70;31.40
3067;DHT22;1544;48.834;9.194;2023-09-07T12:46:15;33.00;31.40
3067;DHT22;1544;48.834;9.194;2023-09-07T12:48:51;33.30;30.90
3067;DHT22;1544;48.834;9.194;2023-09-07T12:51:27;33.50;31.10
3067;DHT22;1544;48.834;9.194;2023-09-07T12:54:03;33.70;30.40
3067;DHT22;1544;48.834;9.194;2023-09-07T12:56:39;33.90;30.40
3067;DHT22;1544;48.834;9.194;2023-09-07T12:59:15;34.10;30.30
3067;DHT22;1544;48.834;9.194;2023-09-07T13:01:51;34.40;30.10
3067;DHT22;1544;48.834;9.194;2023-09-07T13:04:31;34.50;29.70
3067;DHT22;1544;48.834;9.194;2023-09-07T13:07:07;34.70;29.70
3067;DHT22;1544;48.834;9.194;2023-09-07T13:09:43;34.90;29.80
3067;DHT22;1544;48.834;9.194;2023-09-07T13:12:20;35.10;29.80
3067;DHT22;1544;48.834;9.194;2023-09-07T13:14:56;35.40;29.70
3067;DHT22;1544;48.834;9.194;2023-09-07T13:17:32;35.60;29.30
3067;DHT22;1544;48.834;9.194;2023-09-07T13:20:08;35.80;29.40
3067;DHT22;1544;48.834;9.194;2023-09-07T13:22:45;36.00;28.90
3067;DHT22;1544;48.834;9.194;2023-09-07T13:25:22;36.10;29.00
3067;DHT22;1544;48.834;9.194;2023-09-07T13:27:58;36.30;29.10
3067;DHT22;1544;48.834;9.194;2023-09-07T13:30:36;36.50;29.00
3067;DHT22;1544;48.834;9.194;2023-09-07T13:33:12;36.60;28.80
3067;DHT22;1544;48.834;9.194;2023-09-07T13:35:51;36.70;28.40
3067;DHT22;1544;48.834;9.194;2023-09-07T13:38:27;36.90;28.50
3067;DHT22;1544;48.834;9.194;2023-09-07T13:41:03;37.10;28.30
3067;DHT22;1544;48.834;9.194;2023-09-07T13:43:39;37.20;28.10
3067;DHT22;1544;48.834;9.194;2023-09-07T13:46:15;37.40;28.00
3067;DHT22;1544;48.834;9.194;2023-09-07T13:48:52;37.50;28.10
3067;DHT22;1544;48.834;9.194;2023-09-07T13:51:29;37.70;28.00
3067;DHT22;1544;48.834;9.194;2023-09-07T13:54:08;37.90;28.20
3067;DHT22;1544;48.834;9.194;2023-09-07T13:56:44;37.90;27.80
3067;DHT22;1544;48.834;9.194;2023-09-07T13:59:22;38.00;27.80
3067;DHT22;1544;48.834;9.194;2023-09-07T14:02:00;38.20;27.80
3067;DHT22;1544;48.834;9.194;2023-09-07T14:04:36;38.30;27.90
3067;DHT22;1544;48.834;9.194;2023-09-07T14:07:12;38.40;27.80
3067;DHT22;1544;48.834;9.194;2023-09-07T14:09:48;38.50;27.70
3067;DHT22;1544;48.834;9.194;2023-09-07T14:12:24;38.50;27.60
3067;DHT22;1544;48.834;9.194;2023-09-07T14:15:00;38.60;27.40
3067;DHT22;1544;48.834;9.194;2023-09-07T14:17:36;38.70;27.30
3067;DHT22;1544;48.834;9.194;2023-09-07T14:20:12;38.70;27.10
3067;DHT22;1544;48.834;9.194;2023-09-07T14:22:48;38.80;27.10
3067;DHT22;1544;48.834;9.194;2023-09-07T14:25:24;38.80;27.00
3067;DHT22;1544;48.834;9.194;2023-09-07T14:28:00;39.00;27.00
3067;DHT22;1544;48.834;9.194;2023-09-07T14:30:36;39.00;26.90
3067;DHT22;1544;48.834;9.194;2023-09-07T14:33:12;39.10;27.20
3067;DHT22;1544;48.834;9.194;2023-09-07T14:35:50;39.10;26.90
3067;DHT22;1544;48.834;9.194;2023-09-07T14:38:29;39.30;27.10
3067;DHT22;1544;48.834;9.194;2023-09-07T14:41:09;39.40;27.20
3067;DHT22;1544;48.834;9.194;2023-09-07T14:43:51;39.40;26.70
3067;DHT22;1544;48.834;9.194;2023-09-07T14:46:27;39.40;26.70
3067;DHT22;1544;48.834;9.194;2023-09-07T14:49:03;39.40;26.80
3067;DHT22;1544;48.834;9.194;2023-09-07T14:51:39;39.40;26.80
3067;DHT22;1544;48.834;9.194;2023-09-07T14:54:15;39.40;26.90
3067;DHT22;1544;48.834;9.194;2023-09-07T14:56:52;39.50;27.00
3067;DHT22;1544;48.834;9.194;2023-09-07T14:59:27;39.50;26.70
3067;DHT22;1544;48.834;9.194;2023-09-07T15:02:03;39.60;26.70
3067;DHT22;1544;48.834;9.194;2023-09-07T15:04:40;39.50;26.60
3067;DHT22;1544;48.834;9.194;2023-09-07T15:07:18;39.60;26.80
3067;DHT22;1544;48.834;9.194;2023-09-07T15:09:55;39.60;26.70
3067;DHT22;1544;48.834;9.194;2023-09-07T15:12:31;39.60;26.60
3067;DHT22;1544;48.834;9.194;2023-09-07T15:15:08;39.60;26.30
3067;DHT22;1544;48.834;9.194;2023-09-07T15:17:47;39.60;26.40
3067;DHT22;1544;48.834;9.194;2023-09-07T15:20:24;39.60;26.50
3067;DHT22;1544;48.834;9.194;2023-09-07T15:23:00;39.60;26.30
3067;DHT22;1544;48.834;9.194;2023-09-07T15:25:35;39.60;26.40
3067;DHT22;1544;48.834;9.194;2023-09-07T15:28:11;39.60;26.50
3067;DHT22;1544;48.834;9.194;2023-09-07T15:30:49;39.60;26.50
3067;DHT22;1544;48.834;9.194;2023-09-07T15:33:24;39.50;26.20
3067;DHT22;1544;48.834;9.194;2023-09-07T15:36:01;39.50;26.40
3067;DHT22;1544;48.834;9.194;2023-09-07T15:38:37;39.50;26.40
3067;DHT22;1544;48.834;9.194;2023-09-07T15:41:13;39.50;26.30
3067;DHT22;1544;48.834;9.194;2023-09-07T15:43:49;39.50;26.40
3067;DHT22;1544;48.834;9.194;2023-09-07T15:46:25;39.40;26.00
3067;DHT22;1544;48.834;9.194;2023-09-07T15:49:01;39.40;26.00
3067;DHT22;1544;48.834;9.194;2023-09-07T15:51:37;39.30;26.00
3067;DHT22;1544;48.834;9.194;2023-09-07T15:54:13;39.30;25.90
3067;DHT22;1544;48.834;9.194;2023-09-07T15:56:49;39.10;25.60
3067;DHT22;1544;48.834;9.194;2023-09-07T15:59:31;39.00;25.90
3067;DHT22;1544;48.834;9.194;2023-09-07T16:02:07;39.00;25.80
3067;DHT22;1544;48.834;9.194;2023-09-07T16:04:43;38.90;25.60
3067;DHT22;1544;48.834;9.194;2023-09-07T16:07:19;38.80;25.60
3067;DHT22;1544;48.834;9.194;2023-09-07T16:09:56;38.70;25.80
3067;DHT22;1544;48.834;9.194;2023-09-07T16:12:31;38.60;25.70
3067;DHT22;1544;48.834;9.194;2023-09-07T16:15:08;38.60;25.70
3067;DHT22;1544;48.834;9.194;2023-09-07T16:17:44;38.50;25.70
3067;DHT22;1544;48.834;9.194;2023-09-07T16:20:20;38.50;25.80
3067;DHT22;1544;48.834;9.194;2023-09-07T16:22:56;38.40;25.80
3067;DHT22;1544;48.834;9.194;2023-09-07T16:25:33;38.30;25.70
3067;DHT22;1544;48.834;9.194;2023-09-07T16:28:09;38.20;25.70
3067;DHT22;1544;48.834;9.194;2023-09-07T16:30:45;38.20;25.90
3067;DHT22;1544;48.834;9.194;2023-09-07T16:33:21;38.10;25.80
3067;DHT22;1544;48.834;9.194;2023-09-07T16:35:57;38.00;25.90
3067;DHT22;1544;48.834;9.194;2023-09-07T16:38:33;37.90;25.80
3067;DHT22;1544;48.834;9.194;2023-09-07T16:41:09;37.70;25.70
3067;DHT22;1544;48.834;9.194;2023-09-07T16:43:45;37.60;25.80
3067;DHT22;1544;48.834;9.194;2023-09-07T16:46:21;37.40;25.80
3067;DHT22;1544;48.834;9.194;2023-09-07T16:48:57;37.20;25.90
3067;DHT22;1544;48.834;9.194;2023-09-07T16:51:33;37.10;25.90
3067;DHT22;1544;48.834;9.194;2023-09-07T16:54:09;37.00;25.80
3067;DHT22;1544;48.834;9.194;2023-09-07T16:56:45;36.80;25.70
3067;DHT22;1544;48.834;9.194;2023-09-07T16:59:21;36.90;25.90
3067;DHT22;1544;48.834;9.194;2023-09-07T17:02:17;36.30;25.50
3067;DHT22;1544;48.834;9.194;2023-09-07T17:04:54;36.00;25.70